createdAt,value
2018-10-19T00:02:07.342Z,1.90
2018-10-19T00:05:10.898Z,1.62
2018-10-19T00:08:15.667Z,1.60
2018-10-19T00:11:20.415Z,1.47
2018-10-19T00:14:25.154Z,1.98
2018-10-19T00:17:30.011Z,2.12
2018-10-19T00:20:33.727Z,1.70
2018-10-19T00:23:37.622Z,1.77
2018-10-19T00:26:42.886Z,2.60
2018-10-19T00:29:48.224Z,1.98
2018-10-19T00:32:51.610Z,1.85
2018-10-19T00:35:56.314Z,2.33
2018-10-19T00:39:00.943Z,1.67
2018-10-19T00:42:04.990Z,2.75
2018-10-19T00:45:10.503Z,1.90
2018-10-19T00:48:15.626Z,2.25
2018-10-19T00:51:20.133Z,2.00
2018-10-19T00:54:23.066Z,2.05
2018-10-19T00:57:26.623Z,2.20
2018-10-19T01:00:30.666Z,1.92
2018-10-19T01:03:34.994Z,1.70
2018-10-19T01:06:39.733Z,1.72
2018-10-19T01:09:44.122Z,1.90
2018-10-19T01:12:47.994Z,2.02
2018-10-19T01:15:52.809Z,1.75
2018-10-19T01:18:56.541Z,2.10
2018-10-19T01:22:01.395Z,2.30
2018-10-19T01:25:05.618Z,1.80
2018-10-19T01:28:09.038Z,2.02
2018-10-19T01:31:12.594Z,1.60
2018-10-19T01:34:15.571Z,2.15
2018-10-19T01:37:19.190Z,2.12
2018-10-19T01:40:23.234Z,1.67
2018-10-19T01:43:26.803Z,2.02
2018-10-19T01:46:31.126Z,1.77
2018-10-19T01:49:34.707Z,2.20
2018-10-19T01:52:38.178Z,2.30
2018-10-19T01:55:40.943Z,2.35
2018-10-19T01:58:45.082Z,2.15
2018-10-19T02:01:49.242Z,1.75
2018-10-19T02:04:53.477Z,1.67
2018-10-19T02:07:57.131Z,2.10
2018-10-19T02:11:01.169Z,2.13
2018-10-19T02:14:04.674Z,2.10
2018-10-19T02:17:08.994Z,1.87
2018-10-19T02:20:12.626Z,2.30
2018-10-19T02:23:16.633Z,2.60
2018-10-19T02:26:20.070Z,2.62
2018-10-19T02:29:23.986Z,2.60
2018-10-19T02:32:28.379Z,3.20
2018-10-19T02:35:31.926Z,2.25
2018-10-19T02:38:35.359Z,2.03
2018-10-19T02:41:38.406Z,2.07
2018-10-19T02:44:41.718Z,2.50
2018-10-19T02:47:46.429Z,2.58
2018-10-19T02:50:49.926Z,2.50
2018-10-19T02:53:54.047Z,2.37
2018-10-19T02:56:59.907Z,2.92
2018-10-19T03:00:03.015Z,2.75
2018-10-19T03:03:07.749Z,2.67
2018-10-19T03:06:11.646Z,2.73
2018-10-19T03:09:15.385Z,2.43
2018-10-19T03:12:19.630Z,2.77
2018-10-19T03:15:23.320Z,2.60
2018-10-19T03:18:26.935Z,3.57
2018-10-19T03:21:30.835Z,2.87
2018-10-19T03:24:34.475Z,3.07
2018-10-19T03:27:37.582Z,3.10
2018-10-19T03:30:43.017Z,3.37
2018-10-19T03:33:45.818Z,2.90
2018-10-19T03:36:50.253Z,3.37
2018-10-19T03:39:54.261Z,3.07
2018-10-19T03:42:58.494Z,3.20
2018-10-19T03:46:03.194Z,3.30
2018-10-19T03:49:06.700Z,3.20
2018-10-19T03:52:11.490Z,3.50
2018-10-19T03:55:15.189Z,3.70
2018-10-19T03:58:19.936Z,3.97
2018-10-19T04:01:23.950Z,4.72
2018-10-19T04:04:26.958Z,5.00
2018-10-19T04:07:30.515Z,6.80
2018-10-19T04:10:35.211Z,6.30
2018-10-19T04:13:39.430Z,6.50
2018-10-19T04:16:44.895Z,6.07
2018-10-19T04:19:48.781Z,5.20
2018-10-19T04:23:10.385Z,5.67
2018-10-19T04:26:15.062Z,4.27
2018-10-19T04:29:18.658Z,3.57
2018-10-19T04:32:22.678Z,4.13
2018-10-19T04:35:26.302Z,4.23
2018-10-19T04:38:30.283Z,3.97
2018-10-19T04:41:33.672Z,4.33
2018-10-19T04:44:38.827Z,3.80
2018-10-19T04:47:41.952Z,4.20
2018-10-19T04:50:46.307Z,3.58
2018-10-19T04:53:51.498Z,3.57
2018-10-19T04:56:55.801Z,3.40
2018-10-19T04:59:59.819Z,4.17
2018-10-19T05:03:04.865Z,4.30
2018-10-19T05:06:07.908Z,3.80
2018-10-19T05:09:12.427Z,3.73
2018-10-19T05:12:15.373Z,3.73
2018-10-19T05:15:19.534Z,3.07
2018-10-19T05:18:23.870Z,3.17
2018-10-19T05:21:28.542Z,4.23
2018-10-19T05:24:32.141Z,3.90
2018-10-19T05:27:35.758Z,4.17
2018-10-19T05:30:39.150Z,3.67
2018-10-19T05:33:42.054Z,4.33
2018-10-19T05:36:45.487Z,4.33
2018-10-19T05:39:48.474Z,4.30
2018-10-19T05:42:52.006Z,3.80
2018-10-19T05:45:55.650Z,3.60
2018-10-19T05:49:00.262Z,3.60
2018-10-19T05:52:04.105Z,3.60
2018-10-19T05:55:07.685Z,3.90
2018-10-19T05:58:12.014Z,3.90
2018-10-19T06:01:15.629Z,4.23
2018-10-19T06:04:19.223Z,4.17
2018-10-19T06:07:22.174Z,3.77
2018-10-19T06:10:25.815Z,4.50
2018-10-19T06:13:28.791Z,5.00
2018-10-19T06:16:31.742Z,4.70
2018-10-19T06:19:35.874Z,5.73
2018-10-19T06:22:39.502Z,5.23
2018-10-19T06:25:43.946Z,5.13
2018-10-19T06:28:48.067Z,5.23
2018-10-19T06:31:52.880Z,4.87
2018-10-19T06:34:57.549Z,5.10
2018-10-19T06:38:01.324Z,4.07
2018-10-19T06:41:04.976Z,5.27
2018-10-19T06:44:08.357Z,3.83
2018-10-19T06:47:11.876Z,4.13
2018-10-19T06:50:16.186Z,4.63
2018-10-19T06:53:19.982Z,4.17
2018-10-19T06:56:24.323Z,4.17
2018-10-19T06:59:28.057Z,4.53
2018-10-19T07:02:32.723Z,5.03
2018-10-19T07:05:35.727Z,3.87
2018-10-19T07:08:39.626Z,4.25
2018-10-19T07:11:44.974Z,4.17
2018-10-19T07:14:49.446Z,4.57
2018-10-19T07:17:53.218Z,4.27
2018-10-19T07:20:56.902Z,4.10
2018-10-19T07:24:02.361Z,4.05
2018-10-19T07:27:05.296Z,4.00
2018-10-19T07:30:09.058Z,3.77
2018-10-19T07:33:13.251Z,3.90
2018-10-19T07:36:16.802Z,3.33
2018-10-19T07:39:19.821Z,3.90
2018-10-19T07:42:23.949Z,3.63
2018-10-19T07:45:27.323Z,3.42
2018-10-19T07:48:31.621Z,3.43
2018-10-19T07:51:36.866Z,3.57
2018-10-19T07:54:40.971Z,2.90
2018-10-19T07:57:44.130Z,2.90
2018-10-19T08:00:48.058Z,2.95
2018-10-19T08:03:50.926Z,3.13
2018-10-19T08:06:55.408Z,3.02
2018-10-19T08:09:59.082Z,2.60
2018-10-19T08:13:04.063Z,2.77
2018-10-19T08:16:07.868Z,2.75
2018-10-19T08:19:11.360Z,1.90
2018-10-19T08:22:14.206Z,2.90
2018-10-19T08:25:17.814Z,2.02
2018-10-19T08:28:30.518Z,1.82
2018-10-19T08:31:38.463Z,2.30
2018-10-19T08:34:41.439Z,2.50
2018-10-19T08:37:46.094Z,2.10
2018-10-19T08:40:50.202Z,1.65
2018-10-19T08:43:53.762Z,2.10
2018-10-19T08:46:57.865Z,1.80
2018-10-19T08:50:02.615Z,1.55
2018-10-19T08:53:06.833Z,2.17
2018-10-19T08:56:10.472Z,1.70
2018-10-19T08:59:14.497Z,1.82
2018-10-19T09:02:17.971Z,1.60
2018-10-19T09:05:20.942Z,2.15
2018-10-19T09:08:25.318Z,1.85
2018-10-19T09:11:30.540Z,1.80
2018-10-19T09:14:48.206Z,2.20
2018-10-19T09:17:51.951Z,1.55
2018-10-19T09:20:57.258Z,1.85
2018-10-19T09:24:00.694Z,1.85
2018-10-19T09:27:03.744Z,1.67
2018-10-19T09:30:08.191Z,1.60
2018-10-19T09:33:12.501Z,2.02
2018-10-19T09:36:16.097Z,1.92
2018-10-19T09:39:20.179Z,2.30
2018-10-19T09:42:25.168Z,1.75
2018-10-19T09:45:28.803Z,1.70
2018-10-19T09:48:32.270Z,1.52
2018-10-19T09:51:36.142Z,1.62
2018-10-19T09:54:40.200Z,1.60
2018-10-19T09:57:44.477Z,1.37
2018-10-19T10:00:52.981Z,2.00
2018-10-19T10:03:56.634Z,1.50
2018-10-19T10:07:01.743Z,2.22
2018-10-19T10:10:06.538Z,1.47
2018-10-19T10:13:13.247Z,1.55
2018-10-19T10:16:22.118Z,1.40
2018-10-19T10:19:28.330Z,1.85
2018-10-19T10:22:31.439Z,1.60
2018-10-19T10:25:34.967Z,1.40
2018-10-19T10:28:38.098Z,1.35
2018-10-19T10:31:41.718Z,1.82
2018-10-19T10:34:44.824Z,1.42
2018-10-19T10:37:48.271Z,1.47
2018-10-19T10:40:53.170Z,1.25
2018-10-19T10:43:57.871Z,1.30
2018-10-19T10:47:02.680Z,1.60
2018-10-19T10:50:07.206Z,1.40
2018-10-19T10:53:12.119Z,1.10
2018-10-19T10:56:15.738Z,1.35
2018-10-19T10:59:20.182Z,1.50
2018-10-19T11:02:23.111Z,1.10
2018-10-19T11:05:26.209Z,1.30
2018-10-19T11:08:29.091Z,1.22
2018-10-19T11:11:32.907Z,1.20
2018-10-19T11:14:37.050Z,1.12
2018-10-19T11:17:41.353Z,1.40
2018-10-19T11:20:45.418Z,0.98
2018-10-19T11:23:52.774Z,0.93
2018-10-19T11:26:57.862Z,1.17
2018-10-19T11:30:03.891Z,1.22
2018-10-19T11:33:08.022Z,1.20
2018-10-19T11:36:13.120Z,0.90
2018-10-19T11:39:16.071Z,1.07
2018-10-19T11:42:20.631Z,0.98
2018-10-19T11:45:24.926Z,1.37
2018-10-19T11:48:30.915Z,1.50
2018-10-19T11:51:33.949Z,0.90
2018-10-19T11:54:37.610Z,0.98
2018-10-19T11:57:41.643Z,1.12
2018-10-19T12:00:45.235Z,1.30
2018-10-19T12:03:49.342Z,1.00
2018-10-19T12:06:52.376Z,0.90
2018-10-19T12:09:55.509Z,0.90
2018-10-19T12:12:59.441Z,0.85
2018-10-19T12:16:04.316Z,1.10
2018-10-19T12:19:07.995Z,1.00
2018-10-19T12:22:11.539Z,0.95
2018-10-19T12:25:16.057Z,0.80
2018-10-19T12:28:20.095Z,1.00
2018-10-19T12:31:24.463Z,0.75
2018-10-19T12:34:27.378Z,1.65
2018-10-19T12:37:32.115Z,0.72
2018-10-19T12:40:37.387Z,1.20
2018-10-19T12:43:50.739Z,1.30
2018-10-19T12:47:05.080Z,0.95
2018-10-19T12:50:09.403Z,1.37
2018-10-19T12:53:14.010Z,0.95
2018-10-19T12:56:38.060Z,1.00
2018-10-19T12:59:42.230Z,1.05
2018-10-19T13:02:45.347Z,1.10
2018-10-19T13:05:49.494Z,0.82
2018-10-19T13:08:52.720Z,1.50
2018-10-19T13:11:56.134Z,1.02
2018-10-19T13:15:00.369Z,0.85
2018-10-19T13:18:04.187Z,0.62
2018-10-19T13:21:07.306Z,1.02
2018-10-19T13:24:10.810Z,0.95
2018-10-19T13:27:14.130Z,1.12
2018-10-19T13:30:18.531Z,1.02
2018-10-19T13:34:46.735Z,1.00
2018-10-19T13:37:50.982Z,1.07
2018-10-19T13:40:55.640Z,1.17
2018-10-19T13:44:00.028Z,1.00
2018-10-19T13:47:03.786Z,3.62
2018-10-19T13:50:07.859Z,1.67
2018-10-19T13:53:10.825Z,1.35
2018-10-19T13:56:16.214Z,1.00
2018-10-19T13:59:19.179Z,1.35
2018-10-19T14:02:22.858Z,1.07
2018-10-19T14:05:26.474Z,1.07
2018-10-19T14:08:29.758Z,0.80
2018-10-19T14:11:34.063Z,0.85
2018-10-19T14:14:37.801Z,1.55
2018-10-19T14:17:41.282Z,2.12
2018-10-19T14:20:44.281Z,1.37
2018-10-19T14:23:48.692Z,1.55
2018-10-19T14:26:52.371Z,1.00
2018-10-19T14:29:56.357Z,1.20
2018-10-19T14:33:00.070Z,2.10
2018-10-19T14:36:04.730Z,1.00
2018-10-19T14:39:08.648Z,1.15
2018-10-19T14:42:12.499Z,1.00
2018-10-19T14:45:16.299Z,1.25
2018-10-19T14:48:19.952Z,0.90
2018-10-19T14:51:23.647Z,1.30
2018-10-19T14:54:26.768Z,1.10
2018-10-19T14:57:30.428Z,1.37
2018-10-19T15:00:35.810Z,1.82
2018-10-19T15:03:39.378Z,1.32
2018-10-19T15:06:42.919Z,2.33
2018-10-19T15:09:48.051Z,1.17
2018-10-19T15:12:52.278Z,2.55
2018-10-19T15:15:55.942Z,2.87
2018-10-19T15:19:01.086Z,2.47
2018-10-19T15:22:04.910Z,2.47
2018-10-19T15:25:08.878Z,3.22
2018-10-19T15:28:11.843Z,3.58
2018-10-19T15:31:16.112Z,2.30
2018-10-19T15:34:21.866Z,2.70
2018-10-19T15:37:25.229Z,17.90
2018-10-19T15:40:28.183Z,27.10
2018-10-19T15:43:31.711Z,8.40
2018-10-19T15:46:35.880Z,4.78
2018-10-19T15:49:39.522Z,7.30
2018-10-19T15:52:43.380Z,10.40
2018-10-19T15:55:47.174Z,6.22
2018-10-19T15:58:50.690Z,2.27
2018-10-19T16:01:54.299Z,2.67
2018-10-19T16:04:57.803Z,2.20
2018-10-19T16:08:01.938Z,2.25
2018-10-19T16:11:06.022Z,1.55
2018-10-19T16:14:10.242Z,2.25
2018-10-19T16:17:14.716Z,2.12
2018-10-19T16:20:18.384Z,2.72
2018-10-19T16:23:24.072Z,3.47
2018-10-19T16:26:27.731Z,4.20
2018-10-19T16:29:31.854Z,4.60
2018-10-19T16:32:36.315Z,4.65
2018-10-19T16:35:40.982Z,5.55
2018-10-19T16:38:44.990Z,5.55
2018-10-19T16:41:48.539Z,6.10
2018-10-19T16:44:52.511Z,5.65
2018-10-19T16:47:57.106Z,5.50
2018-10-19T16:51:01.522Z,4.47
2018-10-19T16:54:04.909Z,4.95
2018-10-19T16:57:09.146Z,4.00
2018-10-19T17:00:12.718Z,3.45
2018-10-19T17:03:16.795Z,4.65
2018-10-19T17:06:21.066Z,4.67
2018-10-19T17:09:25.391Z,4.75
2018-10-19T17:12:29.794Z,4.83
2018-10-19T17:15:34.248Z,5.70
2018-10-19T17:18:39.286Z,5.30
2018-10-19T17:21:42.870Z,5.80
2018-10-19T17:24:47.391Z,4.30
2018-10-19T17:27:51.071Z,5.70
2018-10-19T17:30:54.610Z,5.42
2018-10-19T17:33:58.364Z,5.42
2018-10-19T17:37:01.372Z,5.37
2018-10-19T17:40:06.146Z,3.97
2018-10-19T17:43:11.003Z,3.07
2018-10-19T17:46:14.028Z,3.27
2018-10-19T17:49:17.691Z,3.27
2018-10-19T17:52:21.394Z,3.27
2018-10-19T17:55:25.446Z,4.45
2018-10-19T17:58:29.147Z,4.33
2018-10-19T18:01:33.151Z,4.53
2018-10-19T18:04:36.716Z,3.97
2018-10-19T18:07:40.646Z,4.90
2018-10-19T18:10:44.395Z,4.27
2018-10-19T18:13:47.865Z,5.00
2018-10-19T18:16:51.399Z,4.87
2018-10-19T18:19:54.903Z,4.97
2018-10-19T18:22:59.336Z,5.20
2018-10-19T18:26:03.243Z,6.77
2018-10-19T18:29:07.270Z,6.80
2018-10-19T18:32:10.857Z,6.50
2018-10-19T18:35:15.159Z,6.27
2018-10-19T18:38:19.498Z,6.40
2018-10-19T18:41:23.883Z,6.50
2018-10-19T18:44:26.760Z,6.83
2018-10-19T18:47:31.170Z,7.17
2018-10-19T18:50:35.181Z,7.07
2018-10-19T18:53:39.470Z,7.60
2018-10-19T18:56:43.539Z,8.70
2018-10-19T18:59:47.832Z,8.93
2018-10-19T19:02:52.606Z,8.83
2018-10-19T19:05:57.079Z,7.20
2018-10-19T19:09:01.178Z,6.63
2018-10-19T19:12:05.938Z,5.97
2018-10-19T19:15:09.378Z,10.08
2018-10-19T19:18:13.514Z,10.00
2018-10-19T19:21:17.625Z,9.63
2018-10-19T19:24:27.386Z,10.90
2018-10-19T19:27:31.590Z,7.77
2018-10-19T19:30:34.610Z,7.97
2018-10-19T19:33:43.798Z,6.30
2018-10-19T19:36:47.550Z,6.47
2018-10-19T19:39:51.427Z,7.10
2018-10-19T19:42:56.734Z,7.67
2018-10-19T19:45:59.654Z,12.13
2018-10-19T19:49:09.648Z,10.40
2018-10-19T19:52:14.931Z,11.93
2018-10-19T19:55:19.614Z,14.07
2018-10-19T19:58:24.715Z,11.67
2018-10-19T20:01:28.554Z,10.93
2018-10-19T20:04:32.643Z,11.00
2018-10-19T20:07:38.446Z,9.67
2018-10-19T20:10:43.025Z,11.07
2018-10-19T20:13:48.012Z,12.03
2018-10-19T20:16:51.602Z,9.53
2018-10-19T20:19:55.312Z,7.83
2018-10-19T20:22:58.858Z,7.93
2018-10-19T20:26:04.545Z,9.10
2018-10-19T20:29:07.573Z,9.13
2018-10-19T20:32:11.781Z,9.90
2018-10-19T20:35:16.841Z,9.33
2018-10-19T20:38:19.915Z,10.23
2018-10-19T20:41:24.587Z,10.43
2018-10-19T20:44:27.822Z,11.37
2018-10-19T20:47:31.675Z,11.97
2018-10-19T20:50:35.872Z,12.50
2018-10-19T20:53:40.013Z,13.20
2018-10-19T20:56:43.704Z,13.77
2018-10-19T20:59:46.666Z,14.10
2018-10-19T21:02:50.512Z,14.70
2018-10-19T21:05:56.008Z,15.43
2018-10-19T21:09:01.395Z,15.70
2018-10-19T21:12:05.038Z,15.87
2018-10-19T21:15:10.090Z,15.27
2018-10-19T21:18:14.834Z,14.23
2018-10-19T21:21:18.926Z,14.93
2018-10-19T21:24:22.547Z,15.27
2018-10-19T21:27:27.435Z,15.17
2018-10-19T21:30:32.011Z,16.43
2018-10-19T21:33:35.806Z,17.03
2018-10-19T21:36:39.348Z,15.10
2018-10-19T21:39:44.117Z,15.17
2018-10-19T21:42:47.758Z,15.77
2018-10-19T21:45:52.100Z,17.47
2018-10-19T21:48:57.223Z,16.90
2018-10-19T21:52:01.006Z,15.80
2018-10-19T21:55:04.050Z,15.53
2018-10-19T21:58:09.103Z,15.23
2018-10-19T22:01:12.590Z,16.50
2018-10-19T22:04:17.131Z,15.40
2018-10-19T22:07:20.579Z,17.33
2018-10-19T22:10:25.040Z,18.23
2018-10-19T22:13:28.476Z,16.07
2018-10-19T22:16:34.314Z,16.10
2018-10-19T22:19:38.076Z,17.43
2018-10-19T22:22:41.821Z,18.53
2018-10-19T22:25:45.432Z,17.63
2018-10-19T22:28:48.448Z,18.20
2018-10-19T22:31:53.740Z,18.70
2018-10-19T22:34:57.374Z,22.03
2018-10-19T22:38:00.894Z,19.77
2018-10-19T22:41:05.753Z,19.73
2018-10-19T22:44:09.900Z,18.90
2018-10-19T22:47:14.418Z,18.83
2018-10-19T22:50:18.852Z,17.93
2018-10-19T22:53:22.689Z,16.33
2018-10-19T22:56:27.836Z,15.33
2018-10-19T22:59:30.934Z,16.50
2018-10-19T23:02:34.332Z,17.00
2018-10-19T23:05:38.542Z,15.73
2018-10-19T23:08:41.940Z,15.77
2018-10-19T23:11:45.527Z,13.50
2018-10-19T23:14:50.618Z,16.10
2018-10-19T23:17:57.238Z,15.17
2018-10-19T23:21:02.223Z,15.67
2018-10-19T23:24:07.259Z,15.87
2018-10-19T23:27:11.515Z,16.23
2018-10-19T23:30:16.966Z,15.87
2018-10-19T23:33:21.579Z,14.67
2018-10-19T23:36:25.139Z,14.50
2018-10-19T23:39:29.822Z,12.23
2018-10-19T23:42:34.808Z,14.50
2018-10-19T23:45:38.366Z,12.13
2018-10-19T23:48:42.756Z,11.80
2018-10-19T23:51:47.522Z,11.50
2018-10-19T23:54:52.401Z,9.00
2018-10-19T23:57:56.846Z,10.83
